createdAt,value
2023-04-17T00:00:44.218Z,12.74
2023-04-17T00:01:41.015Z,12.23
2023-04-17T00:02:40.068Z,12.20
2023-04-17T00:03:37.971Z,13.05
2023-04-17T00:04:34.930Z,12.89
2023-04-17T00:05:33.830Z,12.84
2023-04-17T00:06:33.860Z,13.15
2023-04-17T00:07:30.595Z,13.11
2023-04-17T00:08:27.296Z,13.10
2023-04-17T00:09:24.053Z,13.24
2023-04-17T00:10:20.760Z,13.09
2023-04-17T00:11:18.766Z,12.63
2023-04-17T00:12:16.211Z,13.08
2023-04-17T00:13:12.892Z,12.96
2023-04-17T00:14:09.654Z,13.18
2023-04-17T00:15:07.361Z,12.98
2023-04-17T00:16:04.401Z,12.54
2023-04-17T00:17:01.136Z,12.79
2023-04-17T00:17:57.911Z,12.70
2023-04-17T00:18:55.216Z,12.14
2023-04-17T00:19:52.069Z,12.52
2023-04-17T00:20:49.844Z,12.24
2023-04-17T00:21:46.656Z,12.43
2023-04-17T00:22:43.856Z,12.77
2023-04-17T00:23:40.791Z,12.91
2023-04-17T00:24:37.554Z,12.62
2023-04-17T00:25:34.244Z,12.60
2023-04-17T00:26:32.462Z,12.66
2023-04-17T00:27:29.310Z,12.59
2023-04-17T00:28:26.086Z,12.64
2023-04-17T00:29:22.870Z,12.57
2023-04-17T00:30:19.765Z,12.10
2023-04-17T00:31:16.903Z,12.41
2023-04-17T00:32:13.779Z,11.52
2023-04-17T00:33:10.564Z,12.22
2023-04-17T00:34:07.275Z,12.14
2023-04-17T00:35:04.373Z,12.05
2023-04-17T00:36:01.122Z,12.73
2023-04-17T00:36:59.263Z,12.68
2023-04-17T00:37:56.060Z,12.33
2023-04-17T00:38:52.902Z,12.55
2023-04-17T00:39:49.631Z,12.42
2023-04-17T00:40:46.600Z,12.35
2023-04-17T00:41:43.353Z,12.34
2023-04-17T00:42:40.069Z,12.54
2023-04-17T00:43:37.048Z,11.83
2023-04-17T00:44:33.887Z,11.94
2023-04-17T00:45:31.741Z,12.48
2023-04-17T00:46:28.531Z,12.48
2023-04-17T00:47:26.467Z,12.44
2023-04-17T00:48:24.291Z,12.43
2023-04-17T00:49:21.917Z,12.32
2023-04-17T00:50:18.965Z,12.70
2023-04-17T00:51:16.087Z,12.42
2023-04-17T00:52:23.810Z,11.86
2023-04-17T00:53:20.819Z,12.51
2023-04-17T00:54:19.229Z,12.57
2023-04-17T00:55:16.211Z,12.42
2023-04-17T00:56:13.744Z,12.25
2023-04-17T00:57:10.761Z,12.35
2023-04-17T00:58:07.932Z,12.25
2023-04-17T00:59:11.827Z,12.17
2023-04-17T01:00:10.284Z,11.92
2023-04-17T01:01:07.226Z,12.00
2023-04-17T01:02:04.679Z,11.33
2023-04-17T01:03:02.086Z,12.28
2023-04-17T01:04:01.906Z,12.47
2023-04-17T01:04:58.739Z,11.92
2023-04-17T01:05:56.325Z,12.23
2023-04-17T01:06:53.756Z,11.94
2023-04-17T01:07:51.213Z,11.87
2023-04-17T01:08:48.283Z,11.71
2023-04-17T01:09:45.299Z,11.60
2023-04-17T01:10:42.062Z,12.26
2023-04-17T01:11:39.545Z,11.99
2023-04-17T01:12:36.689Z,12.03
2023-04-17T01:13:33.438Z,11.83
2023-04-17T01:14:30.407Z,12.09
2023-04-17T01:15:27.134Z,12.07
2023-04-17T01:16:23.938Z,11.89
2023-04-17T01:17:22.100Z,12.16
2023-04-17T01:18:18.957Z,12.30
2023-04-17T01:19:17.177Z,12.24
2023-04-17T01:20:13.949Z,12.21
2023-04-17T01:21:11.030Z,12.10
2023-04-17T01:22:08.478Z,12.10
2023-04-17T01:23:05.197Z,12.31
2023-04-17T01:24:05.403Z,12.15
2023-04-17T01:25:02.909Z,12.42
2023-04-17T01:25:59.670Z,12.45
2023-04-17T01:26:56.460Z,12.54
2023-04-17T01:27:53.743Z,12.61
2023-04-17T01:28:58.887Z,12.68
2023-04-17T01:29:55.649Z,12.46
2023-04-17T01:30:52.459Z,12.58
2023-04-17T01:31:49.272Z,12.55
2023-04-17T01:32:46.118Z,12.62
2023-04-17T01:33:42.924Z,12.37
2023-04-17T01:34:39.662Z,12.47
2023-04-17T01:35:36.373Z,12.62
2023-04-17T01:36:33.103Z,12.56
2023-04-17T01:37:30.084Z,12.70
2023-04-17T01:38:26.793Z,12.76
2023-04-17T01:39:23.621Z,12.75
2023-04-17T01:40:20.539Z,12.43
2023-04-17T01:41:17.276Z,12.66
2023-04-17T01:42:14.082Z,12.65
2023-04-17T01:43:10.780Z,12.45
2023-04-17T01:44:07.505Z,12.64
2023-04-17T01:45:05.676Z,12.55
2023-04-17T01:46:02.546Z,12.27
2023-04-17T01:46:59.433Z,12.64
2023-04-17T01:47:56.249Z,12.36
2023-04-17T01:48:53.132Z,12.49
2023-04-17T01:49:49.926Z,12.01
2023-04-17T01:50:46.793Z,12.35
2023-04-17T01:51:43.602Z,12.30
2023-04-17T01:52:40.564Z,12.36
2023-04-17T01:53:40.354Z,11.96
2023-04-17T01:54:37.054Z,12.16
2023-04-17T01:55:33.788Z,12.25
2023-04-17T01:56:30.920Z,11.86
2023-04-17T01:57:28.156Z,11.36
2023-04-17T01:58:24.933Z,11.91
2023-04-17T01:59:21.640Z,11.92
2023-04-17T02:00:18.859Z,11.98
2023-04-17T02:01:15.814Z,12.00
2023-04-17T02:02:31.250Z,11.41
2023-04-17T02:03:28.392Z,12.00
2023-04-17T02:04:25.359Z,11.82
2023-04-17T02:05:22.195Z,11.52
2023-04-17T02:06:18.950Z,11.58
2023-04-17T02:07:16.711Z,12.08
2023-04-17T02:08:14.343Z,11.60
2023-04-17T02:09:11.835Z,11.81
2023-04-17T02:10:09.289Z,11.77
2023-04-17T02:11:06.083Z,11.68
2023-04-17T02:12:02.826Z,11.59
2023-04-17T02:12:59.605Z,11.73
2023-04-17T02:13:56.389Z,11.79
2023-04-17T02:14:53.130Z,11.74
2023-04-17T02:15:49.889Z,11.46
2023-04-17T02:16:46.774Z,11.53
2023-04-17T02:17:43.524Z,10.94
2023-04-17T02:18:41.418Z,11.44
2023-04-17T02:19:38.231Z,11.88
2023-04-17T02:20:36.570Z,12.03
2023-04-17T02:21:33.297Z,11.93
2023-04-17T02:22:30.016Z,11.98
2023-04-17T02:23:26.751Z,11.36
2023-04-17T02:24:23.506Z,11.89
2023-04-17T02:25:20.785Z,11.53
2023-04-17T02:26:17.604Z,11.31
2023-04-17T02:27:14.316Z,11.32
2023-04-17T02:28:11.438Z,11.68
2023-04-17T02:29:08.221Z,11.76
2023-04-17T02:30:05.399Z,11.95
2023-04-17T02:31:02.363Z,11.96
2023-04-17T02:31:59.139Z,11.73
2023-04-17T02:32:56.633Z,12.00
2023-04-17T02:33:53.420Z,11.86
2023-04-17T02:34:50.299Z,11.31
2023-04-17T02:35:47.140Z,11.95
2023-04-17T02:36:43.903Z,12.05
2023-04-17T02:37:40.758Z,11.90
2023-04-17T02:38:37.898Z,12.06
2023-04-17T02:39:35.443Z,11.46
2023-04-17T02:40:32.178Z,11.66
2023-04-17T02:41:28.878Z,11.67
2023-04-17T02:42:25.713Z,11.88
2023-04-17T02:43:22.436Z,11.84
2023-04-17T02:44:19.132Z,11.81
2023-04-17T02:45:16.058Z,12.02
2023-04-17T02:46:12.797Z,11.70
2023-04-17T02:47:09.527Z,11.77
2023-04-17T02:48:06.608Z,12.05
2023-04-17T02:49:03.500Z,12.13
2023-04-17T02:50:00.447Z,11.73
2023-04-17T02:50:57.252Z,11.89
2023-04-17T02:51:53.973Z,11.59
2023-04-17T02:52:50.700Z,11.81
2023-04-17T02:53:49.147Z,11.63
2023-04-17T02:54:46.040Z,11.94
2023-04-17T02:55:42.771Z,11.77
2023-04-17T02:56:39.793Z,11.88
2023-04-17T02:57:36.511Z,11.99
2023-04-17T02:58:33.254Z,11.94
2023-04-17T02:59:30.029Z,12.10
2023-04-17T03:00:28.032Z,12.18
2023-04-17T03:01:24.825Z,12.30
2023-04-17T03:02:22.481Z,11.78
2023-04-17T03:03:19.643Z,11.95
2023-04-17T03:04:16.641Z,12.08
2023-04-17T03:05:15.107Z,11.92
2023-04-17T03:06:11.863Z,11.51
2023-04-17T03:07:10.437Z,11.78
2023-04-17T03:08:07.336Z,11.39
2023-04-17T03:09:04.485Z,11.91
2023-04-17T03:10:01.273Z,11.93
2023-04-17T03:10:58.046Z,11.72
2023-04-17T03:11:54.876Z,11.89
2023-04-17T03:12:51.622Z,12.25
2023-04-17T03:13:48.933Z,12.27
2023-04-17T03:14:45.761Z,12.31
2023-04-17T03:15:42.591Z,11.95
2023-04-17T03:16:39.293Z,11.87
2023-04-17T03:17:36.185Z,11.95
2023-04-17T03:18:35.001Z,12.12
2023-04-17T03:19:31.730Z,12.29
2023-04-17T03:20:28.455Z,12.32
2023-04-17T03:21:26.674Z,12.32
2023-04-17T03:22:23.343Z,11.98
2023-04-17T03:23:20.090Z,11.86
2023-04-17T03:24:16.847Z,12.13
2023-04-17T03:25:32.405Z,12.30
2023-04-17T03:26:29.176Z,12.10
2023-04-17T03:27:26.432Z,12.22
2023-04-17T03:28:23.983Z,12.20
2023-04-17T03:29:20.917Z,12.21
2023-04-17T03:30:17.678Z,12.08
2023-04-17T03:31:14.565Z,11.93
2023-04-17T03:32:11.440Z,11.86
2023-04-17T03:33:08.248Z,11.73
2023-04-17T03:34:04.939Z,11.52
2023-04-17T03:35:01.825Z,11.72
2023-04-17T03:35:58.636Z,11.68
2023-04-17T03:36:55.837Z,11.77
2023-04-17T03:37:52.771Z,11.85
2023-04-17T03:38:49.493Z,11.93
2023-04-17T03:39:46.254Z,11.85
2023-04-17T03:40:43.724Z,11.95
2023-04-17T03:41:40.854Z,12.14
2023-04-17T03:42:37.585Z,11.73
2023-04-17T03:43:34.307Z,11.93
2023-04-17T03:44:31.237Z,12.23
2023-04-17T03:45:28.059Z,11.57
2023-04-17T03:46:24.974Z,11.48
2023-04-17T03:47:21.866Z,11.52
2023-04-17T03:48:18.990Z,12.04
2023-04-17T03:49:15.908Z,12.16
2023-04-17T03:50:12.719Z,11.69
2023-04-17T03:51:09.657Z,11.80
2023-04-17T03:52:06.495Z,11.95
2023-04-17T03:53:03.228Z,11.73
2023-04-17T03:54:00.005Z,11.79
2023-04-17T03:54:57.004Z,11.68
2023-04-17T03:55:53.811Z,11.67
2023-04-17T03:56:50.650Z,11.78
2023-04-17T03:57:48.577Z,11.98
2023-04-17T03:58:45.426Z,11.74
2023-04-17T03:59:42.147Z,11.95
2023-04-17T04:00:39.056Z,12.01
2023-04-17T04:01:38.683Z,11.66
2023-04-17T04:02:35.489Z,11.98
2023-04-17T04:03:32.724Z,11.07
2023-04-17T04:04:29.848Z,11.87
2023-04-17T04:05:26.722Z,11.96
2023-04-17T04:06:23.494Z,11.67
2023-04-17T04:07:21.441Z,12.10
2023-04-17T04:08:18.271Z,12.01
2023-04-17T04:09:15.148Z,10.98
2023-04-17T04:10:11.918Z,11.67
2023-04-17T04:11:08.686Z,11.95
2023-04-17T04:12:05.523Z,12.01
2023-04-17T04:13:02.280Z,12.14
2023-04-17T04:13:59.052Z,12.20
2023-04-17T04:14:55.827Z,11.97
2023-04-17T04:15:52.724Z,12.27
2023-04-17T04:16:49.700Z,12.38
2023-04-17T04:17:46.441Z,11.69
2023-04-17T04:18:43.398Z,11.48
2023-04-17T04:19:40.316Z,12.16
2023-04-17T04:20:37.110Z,11.85
2023-04-17T04:21:34.514Z,11.96
2023-04-17T04:22:31.269Z,11.64
2023-04-17T04:23:28.218Z,12.10
2023-04-17T04:24:25.630Z,11.87
2023-04-17T04:25:22.882Z,12.04
2023-04-17T04:26:21.778Z,12.10
2023-04-17T04:27:18.718Z,11.98
2023-04-17T04:28:15.529Z,11.80
2023-04-17T04:29:13.840Z,12.31
2023-04-17T04:30:12.500Z,12.20
2023-04-17T04:31:09.818Z,11.98
2023-04-17T04:32:09.861Z,12.09
2023-04-17T04:33:08.447Z,12.18
2023-04-17T04:34:06.088Z,12.30
2023-04-17T04:35:03.187Z,12.18
2023-04-17T04:36:01.371Z,11.21
2023-04-17T04:36:58.451Z,11.82
2023-04-17T04:38:02.063Z,11.93
2023-04-17T04:38:59.908Z,12.14
2023-04-17T04:40:10.687Z,12.41
2023-04-17T04:41:10.471Z,12.32
2023-04-17T04:42:09.974Z,12.02
2023-04-17T04:43:07.020Z,12.36
2023-04-17T04:44:03.790Z,12.39
2023-04-17T04:45:00.749Z,12.32
2023-04-17T04:45:57.552Z,11.79
2023-04-17T04:46:55.513Z,12.17
2023-04-17T04:47:52.697Z,11.92
2023-04-17T04:48:49.586Z,12.22
2023-04-17T04:49:46.293Z,12.02
2023-04-17T04:50:43.032Z,12.40
2023-04-17T04:51:40.077Z,12.02
2023-04-17T04:52:36.812Z,12.30
2023-04-17T04:53:33.681Z,12.41
2023-04-17T04:54:30.538Z,12.36
2023-04-17T04:55:27.345Z,12.32
2023-04-17T04:56:24.093Z,12.60
2023-04-17T04:57:20.871Z,12.60
2023-04-17T04:58:17.574Z,12.79
2023-04-17T04:59:14.292Z,12.83
2023-04-17T05:00:13.327Z,12.61
2023-04-17T05:01:10.229Z,12.70
2023-04-17T05:02:07.306Z,12.28
2023-04-17T05:03:04.406Z,12.63
2023-04-17T05:04:01.669Z,12.76
2023-04-17T05:04:58.648Z,12.64
2023-04-17T05:05:55.515Z,12.61
2023-04-17T05:06:52.483Z,12.47
2023-04-17T05:07:49.247Z,12.66
2023-04-17T05:08:46.032Z,12.73
2023-04-17T05:09:42.998Z,12.30
2023-04-17T05:10:39.811Z,12.47
2023-04-17T05:11:36.633Z,12.65
2023-04-17T05:12:35.073Z,12.65
2023-04-17T05:13:31.924Z,12.19
2023-04-17T05:14:28.663Z,12.64
2023-04-17T05:15:25.728Z,12.69
2023-04-17T05:16:22.506Z,12.56
2023-04-17T05:17:19.313Z,12.68
2023-04-17T05:18:16.063Z,12.51
2023-04-17T05:19:13.004Z,12.50
2023-04-17T05:20:10.582Z,12.84
2023-04-17T05:21:07.269Z,12.74
2023-04-17T05:22:04.054Z,12.45
2023-04-17T05:23:00.917Z,11.79
2023-04-17T05:23:57.768Z,12.63
2023-04-17T05:24:54.578Z,12.86
2023-04-17T05:25:51.336Z,12.57
2023-04-17T05:26:48.183Z,12.63
2023-04-17T05:27:45.014Z,12.52
2023-04-17T05:28:41.769Z,12.42
2023-04-17T05:29:38.662Z,12.70
2023-04-17T05:30:35.468Z,12.69
2023-04-17T05:31:32.272Z,12.92
2023-04-17T05:32:31.188Z,12.53
2023-04-17T05:33:27.999Z,12.29
2023-04-17T05:34:24.888Z,12.54
2023-04-17T05:35:21.721Z,12.81
2023-04-17T05:36:18.535Z,12.30
2023-04-17T05:37:15.569Z,12.40
2023-04-17T05:38:12.369Z,12.29
2023-04-17T05:39:09.171Z,12.80
2023-04-17T05:40:07.221Z,12.33
2023-04-17T05:41:04.034Z,12.97
2023-04-17T05:42:01.575Z,12.89
2023-04-17T05:42:58.332Z,12.36
2023-04-17T05:43:55.097Z,12.49
2023-04-17T05:44:52.027Z,12.51
2023-04-17T05:45:49.272Z,12.71
2023-04-17T05:46:46.274Z,12.86
2023-04-17T05:47:43.161Z,12.92
2023-04-17T05:48:39.906Z,13.16
2023-04-17T05:49:36.669Z,12.75
2023-04-17T05:50:33.521Z,13.15
2023-04-17T05:51:30.234Z,12.65
2023-04-17T05:52:27.015Z,13.21
2023-04-17T05:53:23.947Z,13.32
2023-04-17T05:54:20.747Z,12.99
2023-04-17T05:55:20.046Z,12.82
2023-04-17T05:56:17.027Z,12.75
2023-04-17T05:57:13.849Z,12.99
2023-04-17T05:58:22.980Z,13.15
2023-04-17T05:59:21.162Z,13.40
2023-04-17T06:00:18.663Z,13.44
2023-04-17T06:01:18.092Z,12.87
2023-04-17T06:02:16.295Z,12.53
2023-04-17T06:03:13.307Z,12.67
2023-04-17T06:04:10.824Z,12.81
2023-04-17T06:05:08.678Z,12.81
2023-04-17T06:06:05.780Z,13.10
2023-04-17T06:07:06.310Z,13.24
2023-04-17T06:08:04.017Z,12.78
2023-04-17T06:09:00.968Z,13.26
2023-04-17T06:09:58.150Z,13.32
2023-04-17T06:10:56.219Z,13.18
2023-04-17T06:11:53.102Z,13.60
2023-04-17T06:12:49.923Z,13.18
2023-04-17T06:13:47.552Z,12.43
2023-04-17T06:14:44.410Z,12.94
2023-04-17T06:15:41.205Z,12.36
2023-04-17T06:16:38.019Z,12.94
2023-04-17T06:17:36.664Z,13.08
2023-04-17T06:18:33.616Z,12.92
2023-04-17T06:19:30.471Z,13.19
2023-04-17T06:20:27.424Z,12.73
2023-04-17T06:21:24.240Z,12.71
2023-04-17T06:22:21.089Z,13.13
2023-04-17T06:23:17.957Z,13.19
2023-04-17T06:24:14.881Z,13.25
2023-04-17T06:25:11.707Z,12.84
2023-04-17T06:26:08.641Z,13.13
2023-04-17T06:27:05.435Z,13.13
2023-04-17T06:28:02.350Z,13.44
2023-04-17T06:28:59.280Z,13.33
2023-04-17T06:29:56.043Z,12.93
2023-04-17T06:30:52.793Z,13.38
2023-04-17T06:31:49.770Z,13.15
2023-04-17T06:32:46.520Z,13.52
2023-04-17T06:33:43.720Z,13.61
2023-04-17T06:34:52.487Z,13.84
2023-04-17T06:35:56.107Z,13.85
2023-04-17T06:36:53.528Z,13.83
2023-04-17T06:37:50.655Z,13.59
2023-04-17T06:38:47.416Z,13.73
2023-04-17T06:39:44.271Z,13.75
2023-04-17T06:40:41.657Z,13.91
2023-04-17T06:41:38.465Z,14.09
2023-04-17T06:42:35.798Z,14.21
2023-04-17T06:43:32.631Z,14.24
2023-04-17T06:44:29.378Z,14.05
2023-04-17T06:45:26.221Z,14.10
2023-04-17T06:46:23.405Z,13.98
2023-04-17T06:47:20.481Z,14.29
2023-04-17T06:48:17.271Z,14.49
2023-04-17T06:49:14.323Z,14.45
2023-04-17T06:50:11.337Z,14.31
2023-04-17T06:51:08.087Z,14.50
2023-04-17T06:52:05.522Z,14.69
2023-04-17T06:53:02.235Z,14.40
2023-04-17T06:53:59.381Z,14.37
2023-04-17T06:54:56.946Z,14.47
2023-04-17T06:55:54.457Z,14.86
2023-04-17T06:56:51.307Z,14.66
2023-04-17T06:57:48.079Z,14.42
2023-04-17T06:58:45.840Z,14.89
2023-04-17T06:59:42.604Z,14.63
2023-04-17T07:00:39.387Z,14.87
2023-04-17T07:01:38.124Z,14.78
2023-04-17T07:02:35.049Z,14.78
2023-04-17T07:03:32.185Z,14.91
2023-04-17T07:04:30.714Z,14.99
2023-04-17T07:05:27.552Z,14.33
2023-04-17T07:06:24.420Z,14.74
2023-04-17T07:07:21.641Z,15.00
2023-04-17T07:08:22.328Z,14.64
2023-04-17T07:09:19.160Z,14.55
2023-04-17T07:10:16.085Z,14.80
2023-04-17T07:11:13.026Z,14.31
2023-04-17T07:12:09.873Z,14.62
2023-04-17T07:13:07.048Z,14.69
2023-04-17T07:14:03.839Z,14.73
2023-04-17T07:15:00.760Z,14.34
2023-04-17T07:15:58.524Z,14.78
2023-04-17T07:16:55.697Z,15.00
2023-04-17T07:17:52.518Z,14.94
2023-04-17T07:18:52.863Z,14.76
2023-04-17T07:19:49.659Z,14.82
2023-04-17T07:20:46.492Z,14.87
2023-04-17T07:21:43.248Z,14.57
2023-04-17T07:22:40.103Z,14.59
2023-04-17T07:23:36.961Z,14.59
2023-04-17T07:24:36.863Z,14.88
2023-04-17T07:25:33.656Z,15.19
2023-04-17T07:26:30.443Z,15.35
2023-04-17T07:27:27.225Z,15.14
2023-04-17T07:28:25.139Z,15.32
2023-04-17T07:29:21.882Z,15.42
2023-04-17T07:30:18.802Z,15.07
2023-04-17T07:31:15.675Z,15.03
2023-04-17T07:32:13.251Z,15.33
2023-04-17T07:33:10.443Z,15.60
2023-04-17T07:34:07.296Z,15.04
2023-04-17T07:35:04.595Z,15.47
2023-04-17T07:36:01.723Z,15.50
2023-04-17T07:36:58.443Z,15.22
2023-04-17T07:37:58.118Z,15.41
2023-04-17T07:38:54.897Z,14.68
2023-04-17T07:39:52.821Z,15.01
2023-04-17T07:40:49.865Z,15.07
2023-04-17T07:41:46.702Z,15.12
2023-04-17T07:42:43.573Z,14.98
2023-04-17T07:43:41.189Z,15.00
2023-04-17T07:44:41.117Z,15.16
2023-04-17T07:45:39.198Z,15.02
2023-04-17T07:46:37.962Z,15.05
2023-04-17T07:47:34.914Z,14.62
2023-04-17T07:48:31.667Z,14.77
2023-04-17T07:49:28.436Z,14.88
2023-04-17T07:50:25.264Z,15.10
2023-04-17T07:51:22.046Z,15.12
2023-04-17T07:52:18.902Z,15.29
2023-04-17T07:53:15.774Z,14.86
2023-04-17T07:54:12.568Z,15.34
2023-04-17T07:55:09.585Z,15.40
2023-04-17T07:56:06.657Z,15.07
2023-04-17T07:57:03.565Z,15.52
2023-04-17T07:58:03.878Z,15.22
2023-04-17T07:59:00.987Z,15.01
2023-04-17T07:59:57.761Z,15.09
2023-04-17T08:00:54.945Z,15.39
2023-04-17T08:01:52.655Z,15.73
2023-04-17T08:02:49.766Z,15.65
2023-04-17T08:03:47.338Z,15.45
2023-04-17T08:04:44.906Z,15.86
2023-04-17T08:05:41.947Z,15.71
2023-04-17T08:06:39.103Z,15.61
2023-04-17T08:07:36.633Z,15.63
2023-04-17T08:08:33.740Z,15.89
2023-04-17T08:09:30.561Z,15.86
2023-04-17T08:10:28.523Z,15.66
2023-04-17T08:11:25.482Z,15.49
2023-04-17T08:12:22.246Z,15.65
2023-04-17T08:13:19.179Z,15.50
2023-04-17T08:14:17.419Z,15.47
2023-04-17T08:15:14.244Z,15.66
2023-04-17T08:16:11.113Z,15.23
2023-04-17T08:17:08.988Z,15.18
2023-04-17T08:18:05.897Z,14.86
2023-04-17T08:19:02.674Z,14.52
2023-04-17T08:20:00.729Z,14.79
2023-04-17T08:20:57.508Z,14.58
2023-04-17T08:22:04.550Z,14.83
2023-04-17T08:23:01.466Z,15.42
2023-04-17T08:23:58.228Z,15.30
2023-04-17T08:24:59.786Z,15.64
2023-04-17T08:25:56.552Z,15.36
2023-04-17T08:26:53.393Z,14.64
2023-04-17T08:27:50.584Z,15.38
2023-04-17T08:28:47.494Z,15.41
2023-04-17T08:29:44.276Z,15.66
2023-04-17T08:30:41.133Z,15.50
2023-04-17T08:31:39.884Z,15.67
2023-04-17T08:32:45.601Z,15.88
2023-04-17T08:33:42.379Z,15.89
2023-04-17T08:34:39.126Z,15.30
2023-04-17T08:35:36.026Z,15.76
2023-04-17T08:36:33.012Z,15.80
2023-04-17T08:37:31.016Z,15.93
2023-04-17T08:38:29.491Z,16.03
2023-04-17T08:39:27.205Z,15.94
2023-04-17T08:40:26.196Z,15.76
2023-04-17T08:41:27.944Z,15.67
2023-04-17T08:42:25.905Z,15.78
2023-04-17T08:43:26.180Z,15.62
2023-04-17T08:44:22.984Z,15.79
2023-04-17T08:45:22.888Z,15.53
2023-04-17T08:46:22.769Z,15.80
2023-04-17T08:47:19.649Z,15.89
2023-04-17T08:48:16.456Z,15.60
2023-04-17T08:49:13.640Z,15.90
2023-04-17T08:50:16.838Z,15.31
2023-04-17T08:51:15.732Z,14.97
2023-04-17T08:52:12.476Z,14.48
2023-04-17T08:53:09.192Z,14.51
2023-04-17T08:54:06.247Z,14.89
2023-04-17T08:55:03.383Z,14.82
2023-04-17T08:56:08.336Z,14.31
2023-04-17T08:57:06.258Z,14.99
2023-04-17T08:58:04.674Z,15.30
2023-04-17T08:59:01.694Z,15.22
2023-04-17T08:59:58.460Z,15.42
2023-04-17T09:00:55.991Z,15.31
2023-04-17T09:02:02.181Z,15.34
2023-04-17T09:03:02.032Z,15.16
2023-04-17T09:03:59.008Z,15.19
2023-04-17T09:04:56.055Z,15.58
2023-04-17T09:05:57.624Z,15.69
2023-04-17T09:06:54.636Z,15.89
2023-04-17T09:08:09.050Z,15.35
2023-04-17T09:09:06.249Z,14.94
2023-04-17T09:10:02.960Z,15.41
2023-04-17T09:10:59.700Z,15.69
2023-04-17T09:12:10.186Z,15.52
2023-04-17T09:13:09.128Z,15.13
2023-04-17T09:14:05.840Z,15.95
2023-04-17T09:15:16.595Z,15.90
2023-04-17T09:16:15.829Z,15.42
2023-04-17T09:17:17.429Z,16.09
2023-04-17T09:18:32.722Z,16.07
2023-04-17T09:19:29.522Z,15.83
2023-04-17T09:20:26.580Z,15.75
2023-04-17T09:21:29.087Z,15.90
2023-04-17T09:22:25.851Z,15.59
2023-04-17T09:23:23.483Z,15.72
2023-04-17T09:24:34.551Z,15.16
2023-04-17T09:25:31.545Z,15.26
2023-04-17T09:26:31.989Z,14.88
2023-04-17T09:27:29.688Z,15.02
2023-04-17T09:28:26.497Z,15.49
2023-04-17T09:29:23.560Z,15.41
2023-04-17T09:30:20.485Z,15.59
2023-04-17T09:31:17.291Z,15.52
2023-04-17T09:32:16.171Z,15.05
2023-04-17T09:33:13.053Z,15.50
2023-04-17T09:34:12.586Z,15.57
2023-04-17T09:35:09.575Z,15.44
2023-04-17T09:36:22.663Z,15.69
2023-04-17T09:37:20.978Z,15.85
2023-04-17T09:38:37.198Z,16.06
2023-04-17T09:39:34.351Z,15.43
2023-04-17T09:40:42.254Z,15.26
2023-04-17T09:41:39.516Z,15.63
2023-04-17T09:43:00.423Z,15.15
2023-04-17T09:44:01.995Z,15.79
2023-04-17T09:45:19.000Z,15.87
2023-04-17T09:46:47.836Z,15.58
2023-04-17T09:47:48.021Z,15.42
2023-04-17T09:48:47.649Z,15.37
2023-04-17T09:49:50.251Z,15.40
2023-04-17T09:50:48.253Z,15.30
2023-04-17T09:51:46.200Z,14.94
2023-04-17T09:52:43.814Z,14.66
2023-04-17T09:53:40.879Z,14.66
2023-04-17T09:54:40.032Z,14.80
2023-04-17T09:55:38.885Z,14.92
2023-04-17T09:56:37.813Z,14.50
2023-04-17T09:57:34.749Z,14.87
2023-04-17T09:58:32.617Z,14.22
2023-04-17T09:59:30.984Z,14.53
2023-04-17T10:00:28.413Z,14.61
2023-04-17T10:01:26.325Z,14.40
2023-04-17T10:02:24.020Z,14.22
2023-04-17T10:03:21.337Z,14.32
2023-04-17T10:04:19.746Z,14.37
2023-04-17T10:05:17.672Z,14.28
2023-04-17T10:06:16.345Z,14.22
2023-04-17T10:07:14.593Z,13.68
2023-04-17T10:08:11.556Z,13.92
2023-04-17T10:09:08.540Z,14.51
2023-04-17T10:10:09.459Z,14.76
2023-04-17T10:11:08.668Z,14.79
2023-04-17T10:12:06.353Z,14.80
2023-04-17T10:13:08.185Z,14.61
2023-04-17T10:14:23.908Z,14.15
2023-04-17T10:15:24.086Z,14.46
2023-04-17T10:16:36.563Z,14.72
2023-04-17T10:17:36.787Z,14.97
2023-04-17T10:18:33.769Z,15.15
2023-04-17T10:19:36.553Z,15.21
2023-04-17T10:20:35.504Z,15.37
2023-04-17T10:21:32.296Z,15.20
2023-04-17T10:22:29.989Z,14.98
2023-04-17T10:23:34.871Z,15.31
2023-04-17T10:24:31.696Z,15.72
2023-04-17T10:25:29.333Z,15.51
2023-04-17T10:26:26.113Z,15.79
2023-04-17T10:27:26.223Z,15.75
2023-04-17T10:28:49.348Z,15.57
2023-04-17T10:29:52.166Z,15.86
2023-04-17T10:30:56.374Z,15.70
2023-04-17T10:32:11.258Z,15.90
2023-04-17T10:33:19.953Z,16.05
2023-04-17T10:34:35.349Z,15.66
2023-04-17T10:35:35.894Z,15.94
2023-04-17T10:36:38.386Z,16.36
2023-04-17T10:38:07.736Z,16.71
2023-04-17T10:39:15.597Z,16.58
2023-04-17T10:40:14.859Z,16.13
2023-04-17T10:41:12.418Z,16.06
2023-04-17T10:42:21.558Z,16.18
2023-04-17T10:43:25.337Z,16.45
2023-04-17T10:44:25.010Z,16.81
2023-04-17T10:45:21.808Z,16.73
2023-04-17T10:46:18.603Z,16.98
2023-04-17T10:47:19.465Z,16.96
2023-04-17T10:48:26.583Z,16.57
2023-04-17T10:49:23.564Z,16.71
2023-04-17T10:50:28.635Z,16.89
2023-04-17T10:51:28.860Z,17.18
2023-04-17T10:52:38.062Z,17.38
2023-04-17T10:54:02.005Z,17.68
2023-04-17T10:55:10.704Z,17.60
2023-04-17T10:56:12.056Z,17.39
2023-04-17T10:57:11.093Z,16.94
2023-04-17T10:58:13.673Z,16.86
2023-04-17T10:59:14.884Z,16.77
2023-04-17T11:00:13.929Z,16.34
2023-04-17T11:01:11.380Z,17.34
2023-04-17T11:02:08.380Z,17.94
2023-04-17T11:03:07.231Z,18.07
2023-04-17T11:04:05.213Z,18.34
2023-04-17T11:05:08.319Z,17.52
2023-04-17T11:06:06.450Z,17.34
2023-04-17T11:07:03.405Z,18.02
2023-04-17T11:08:00.221Z,18.54
2023-04-17T11:08:58.472Z,18.12
2023-04-17T11:09:55.535Z,18.12
2023-04-17T11:10:54.252Z,18.33
2023-04-17T11:11:51.243Z,17.74
2023-04-17T11:12:49.569Z,17.60
2023-04-17T11:13:47.761Z,16.74
2023-04-17T11:14:44.503Z,17.15
2023-04-17T11:15:41.233Z,17.43
2023-04-17T11:16:57.166Z,17.25
2023-04-17T11:17:54.628Z,17.34
2023-04-17T11:18:52.190Z,17.08
2023-04-17T11:19:49.825Z,17.35
2023-04-17T11:20:46.985Z,17.47
2023-04-17T11:21:47.442Z,17.56
2023-04-17T11:22:44.895Z,17.75
2023-04-17T11:23:51.364Z,17.92
2023-04-17T11:24:51.654Z,17.81
2023-04-17T11:25:48.504Z,17.53
2023-04-17T11:26:47.673Z,17.56
2023-04-17T11:27:44.432Z,17.48
2023-04-17T11:28:41.143Z,17.58
2023-04-17T11:29:37.914Z,17.45
2023-04-17T11:30:37.447Z,17.42
2023-04-17T11:31:34.334Z,17.55
2023-04-17T11:32:36.782Z,17.13
2023-04-17T11:33:37.061Z,17.52
2023-04-17T11:34:34.556Z,17.55
2023-04-17T11:35:33.721Z,17.38
2023-04-17T11:36:32.904Z,17.10
2023-04-17T11:37:29.680Z,17.34
2023-04-17T11:38:27.272Z,17.39
2023-04-17T11:39:30.587Z,17.02
2023-04-17T11:40:30.376Z,17.16
2023-04-17T11:41:40.290Z,16.40
2023-04-17T11:42:44.880Z,17.14
2023-04-17T11:43:41.716Z,16.61
2023-04-17T11:44:44.440Z,17.23
2023-04-17T11:45:44.027Z,16.69
2023-04-17T11:46:41.395Z,16.93
2023-04-17T11:47:38.299Z,16.71
2023-04-17T11:48:35.320Z,16.67
2023-04-17T11:49:38.611Z,16.46
2023-04-17T11:50:35.533Z,16.41
2023-04-17T11:51:32.693Z,16.90
2023-04-17T11:52:29.710Z,16.86
2023-04-17T11:53:26.639Z,17.26
2023-04-17T11:54:29.868Z,17.33
2023-04-17T11:55:33.468Z,16.93
2023-04-17T11:56:31.053Z,16.97
2023-04-17T11:57:28.174Z,17.15
2023-04-17T11:58:25.217Z,17.11
2023-04-17T11:59:33.138Z,17.41
2023-04-17T12:00:30.631Z,17.52
2023-04-17T12:01:28.870Z,17.48
2023-04-17T12:02:33.687Z,17.32
2023-04-17T12:03:35.983Z,17.37
2023-04-17T12:04:35.174Z,17.48
2023-04-17T12:05:32.416Z,17.51
2023-04-17T12:06:37.426Z,17.48
2023-04-17T12:07:34.205Z,17.42
2023-04-17T12:08:31.491Z,17.18
2023-04-17T12:09:31.843Z,17.24
2023-04-17T12:10:41.961Z,17.48
2023-04-17T12:11:38.731Z,17.48
2023-04-17T12:12:35.785Z,17.65
2023-04-17T12:13:33.168Z,17.72
2023-04-17T12:14:30.091Z,17.68
2023-04-17T12:15:27.172Z,17.67
2023-04-17T12:16:26.110Z,17.62
2023-04-17T12:17:22.946Z,17.66
2023-04-17T12:18:19.747Z,17.84
2023-04-17T12:19:22.708Z,17.97
2023-04-17T12:20:19.538Z,17.77
2023-04-17T12:21:16.620Z,17.80
2023-04-17T12:22:13.448Z,18.05
2023-04-17T12:23:10.582Z,18.06
2023-04-17T12:24:07.370Z,18.38
2023-04-17T12:25:04.296Z,18.19
2023-04-17T12:26:01.376Z,17.76
2023-04-17T12:27:01.906Z,18.08
2023-04-17T12:28:04.791Z,18.17
2023-04-17T12:29:01.646Z,17.85
2023-04-17T12:29:58.368Z,18.31
2023-04-17T12:30:55.254Z,18.25
2023-04-17T12:31:52.047Z,17.63